sensor_id;sensor_type;location;lat;lon;timestamp;pressure;altitude;pressure_sealevel;temperature;humidity
41230;BME280;26964;50.428;19.218;2023-05-29T00:00:07;1021.3;;;10.3;53.7
41230;BME280;26964;50.428;19.218;2023-05-29T00:01:07;1021.3;;;10.3;53.8
41230;BME280;26964;50.428;19.218;2023-05-29T00:02:06;1021.3;;;10.2;53.8
41230;BME280;26964;50.428;19.218;2023-05-29T00:03:07;1021.3;;;10.2;53.8
41230;BME280;26964;50.428;19.218;2023-05-29T00:04:07;1021.3;;;10.2;53.9
41230;BME280;26964;50.428;19.218;2023-05-29T00:05:08;1021.3;;;10.2;53.9
41230;BME280;26964;50.428;19.218;2023-05-29T00:06:06;1021.3;;;10.1;53.9
41230;BME280;26964;50.428;19.218;2023-05-29T00:07:06;1021.3;;;10.1;53.9
41230;BME280;26964;50.428;19.218;2023-05-29T00:08:07;1021.2;;;10.1;53.9
41230;BME280;26964;50.428;19.218;2023-05-29T00:09:07;1021.3;;;10.1;54.0
41230;BME280;26964;50.428;19.218;2023-05-29T00:10:07;1021.3;;;10.0;54.0
41230;BME280;26964;50.428;19.218;2023-05-29T00:11:06;1021.3;;;10.0;54.0
41230;BME280;26964;50.428;19.218;2023-05-29T00:12:06;1021.3;;;10.0;54.1
41230;BME280;26964;50.428;19.218;2023-05-29T00:13:06;1021.3;;;9.9;54.1
41230;BME280;26964;50.428;19.218;2023-05-29T00:14:07;1021.2;;;9.9;54.2
41230;BME280;26964;50.428;19.218;2023-05-29T00:15:08;1021.3;;;9.9;54.2
41230;BME280;26964;50.428;19.218;2023-05-29T00:16:06;1021.2;;;9.9;54.3
41230;BME280;26964;50.428;19.218;2023-05-29T00:17:07;1021.2;;;9.9;54.3
41230;BME280;26964;50.428;19.218;2023-05-29T00:18:07;1021.2;;;9.9;54.3
41230;BME280;26964;50.428;19.218;2023-05-29T00:19:07;1021.3;;;9.8;54.4
41230;BME280;26964;50.428;19.218;2023-05-29T00:20:07;1021.2;;;9.8;54.4
41230;BME280;26964;50.428;19.218;2023-05-29T00:21:06;1021.2;;;9.8;54.4
41230;BME280;26964;50.428;19.218;2023-05-29T00:22:07;1021.3;;;9.8;54.4
41230;BME280;26964;50.428;19.218;2023-05-29T00:23:07;1021.2;;;9.8;54.5
41230;BME280;26964;50.428;19.218;2023-05-29T00:24:06;1021.2;;;9.8;54.5
41230;BME280;26964;50.428;19.218;2023-05-29T00:25:07;1021.3;;;9.7;54.6
41230;BME280;26964;50.428;19.218;2023-05-29T00:26:07;1021.2;;;9.7;54.6
41230;BME280;26964;50.428;19.218;2023-05-29T00:27:08;1021.2;;;9.7;54.6
41230;BME280;26964;50.428;19.218;2023-05-29T00:28:06;1021.2;;;9.7;54.7
41230;BME280;26964;50.428;19.218;2023-05-29T00:29:07;1021.2;;;9.7;54.7
41230;BME280;26964;50.428;19.218;2023-05-29T00:30:07;1021.2;;;9.6;54.7
41230;BME280;26964;50.428;19.218;2023-05-29T00:31:06;1021.1;;;9.6;54.7
41230;BME280;26964;50.428;19.218;2023-05-29T00:32:07;1021.2;;;9.6;54.8
41230;BME280;26964;50.428;19.218;2023-05-29T00:33:07;1021.1;;;9.6;54.8
41230;BME280;26964;50.428;19.218;2023-05-29T00:34:07;1021.2;;;9.6;54.8
41230;BME280;26964;50.428;19.218;2023-05-29T00:35:07;1021.1;;;9.6;54.8
41230;BME280;26964;50.428;19.218;2023-05-29T00:36:06;1021.2;;;9.6;54.9
41230;BME280;26964;50.428;19.218;2023-05-29T00:37:07;1021.2;;;9.5;54.9
41230;BME280;26964;50.428;19.218;2023-05-29T00:38:07;1021.2;;;9.5;54.9
41230;BME280;26964;50.428;19.218;2023-05-29T00:39:07;1021.3;;;9.5;55.0
41230;BME280;26964;50.428;19.218;2023-05-29T00:40:07;1021.2;;;9.5;55.0
41230;BME280;26964;50.428;19.218;2023-05-29T00:41:06;1021.1;;;9.4;55.0
41230;BME280;26964;50.428;19.218;2023-05-29T00:42:06;1021.1;;;9.4;55.1
41230;BME280;26964;50.428;19.218;2023-05-29T00:43:07;1021.2;;;9.4;55.1
41230;BME280;26964;50.428;19.218;2023-05-29T00:44:07;1021.3;;;9.4;55.1
41230;BME280;26964;50.428;19.218;2023-05-29T00:45:06;1021.3;;;9.4;55.2
41230;BME280;26964;50.428;19.218;2023-05-29T00:46:06;1021.3;;;9.4;55.2
41230;BME280;26964;50.428;19.218;2023-05-29T00:47:06;1021.3;;;9.3;55.2
41230;BME280;26964;50.428;19.218;2023-05-29T00:48:08;1021.2;;;9.3;55.3
41230;BME280;26964;50.428;19.218;2023-05-29T00:49:07;1021.2;;;9.3;55.3
41230;BME280;26964;50.428;19.218;2023-05-29T00:50:07;1021.2;;;9.3;55.3
41230;BME280;26964;50.428;19.218;2023-05-29T00:51:06;1021.2;;;9.3;55.3
41230;BME280;26964;50.428;19.218;2023-05-29T00:52:07;1021.2;;;9.3;55.4
41230;BME280;26964;50.428;19.218;2023-05-29T00:53:06;1021.1;;;9.2;55.4
41230;BME280;26964;50.428;19.218;2023-05-29T00:54:07;1021.2;;;9.2;55.5
41230;BME280;26964;50.428;19.218;2023-05-29T00:55:06;1021.1;;;9.2;55.5
41230;BME280;26964;50.428;19.218;2023-05-29T00:56:06;1021.1;;;9.2;55.5
41230;BME280;26964;50.428;19.218;2023-05-29T00:57:06;1021.1;;;9.2;55.6
41230;BME280;26964;50.428;19.218;2023-05-29T00:58:06;1021.0;;;9.1;55.6
41230;BME280;26964;50.428;19.218;2023-05-29T00:59:07;1021.0;;;9.1;55.6
41230;BME280;26964;50.428;19.218;2023-05-29T01:00:07;1021.0;;;9.1;55.7
41230;BME280;26964;50.428;19.218;2023-05-29T01:01:07;1021.1;;;9.1;55.7
41230;BME280;26964;50.428;19.218;2023-05-29T01:02:06;1021.0;;;9.1;55.7
41230;BME280;26964;50.428;19.218;2023-05-29T01:03:06;1021.0;;;9.0;55.7
41230;BME280;26964;50.428;19.218;2023-05-29T01:04:06;1021.0;;;9.0;55.8
41230;BME280;26964;50.428;19.218;2023-05-29T01:05:06;1021.0;;;9.0;55.8
41230;BME280;26964;50.428;19.218;2023-05-29T01:06:06;1021.0;;;9.0;55.8
41230;BME280;26964;50.428;19.218;2023-05-29T01:07:07;1021.0;;;9.0;55.9
41230;BME280;26964;50.428;19.218;2023-05-29T01:08:06;1021.0;;;9.0;55.9
41230;BME280;26964;50.428;19.218;2023-05-29T01:09:08;1021.0;;;9.0;55.9
41230;BME280;26964;50.428;19.218;2023-05-29T01:10:06;1021.0;;;8.9;56.0
41230;BME280;26964;50.428;19.218;2023-05-29T01:11:11;1021.0;;;8.9;56.0
41230;BME280;26964;50.428;19.218;2023-05-29T01:13:10;1021.0;;;8.9;56.1
41230;BME280;26964;50.428;19.218;2023-05-29T01:14:10;1021.0;;;8.9;56.1
41230;BME280;26964;50.428;19.218;2023-05-29T01:16:12;1021.0;;;8.9;56.2
41230;BME280;26964;50.428;19.218;2023-05-29T01:17:09;1021.0;;;8.9;56.2
41230;BME280;26964;50.428;19.218;2023-05-29T01:18:14;1021.1;;;8.9;56.2
41230;BME280;26964;50.428;19.218;2023-05-29T01:19:10;1021.1;;;8.9;56.3
41230;BME280;26964;50.428;19.218;2023-05-29T01:20:11;1021.0;;;8.8;56.3
41230;BME280;26964;50.428;19.218;2023-05-29T01:21:10;1021.0;;;8.8;56.3
41230;BME280;26964;50.428;19.218;2023-05-29T01:22:11;1021.0;;;8.8;56.4
41230;BME280;26964;50.428;19.218;2023-05-29T01:25:11;1020.9;;;8.8;56.5
41230;BME280;26964;50.428;19.218;2023-05-29T01:26:11;1021.0;;;8.8;56.6
41230;BME280;26964;50.428;19.218;2023-05-29T01:27:07;1021.0;;;8.8;56.6
41230;BME280;26964;50.428;19.218;2023-05-29T01:28:07;1021.0;;;8.8;56.6
41230;BME280;26964;50.428;19.218;2023-05-29T01:29:07;1020.9;;;8.8;56.6
41230;BME280;26964;50.428;19.218;2023-05-29T01:30:10;1021.0;;;8.8;56.7
41230;BME280;26964;50.428;19.218;2023-05-29T01:31:07;1020.9;;;8.8;56.7
41230;BME280;26964;50.428;19.218;2023-05-29T01:32:06;1021.0;;;8.7;56.7
41230;BME280;26964;50.428;19.218;2023-05-29T01:33:06;1020.9;;;8.7;56.7
41230;BME280;26964;50.428;19.218;2023-05-29T01:34:06;1020.9;;;8.7;56.8
41230;BME280;26964;50.428;19.218;2023-05-29T01:35:06;1020.9;;;8.7;56.8
41230;BME280;26964;50.428;19.218;2023-05-29T01:36:07;1020.9;;;8.7;56.9
41230;BME280;26964;50.428;19.218;2023-05-29T01:37:06;1020.9;;;8.7;56.9
41230;BME280;26964;50.428;19.218;2023-05-29T01:38:06;1020.9;;;8.7;56.9
41230;BME280;26964;50.428;19.218;2023-05-29T01:39:06;1020.9;;;8.7;56.9
41230;BME280;26964;50.428;19.218;2023-05-29T01:40:07;1021.0;;;8.7;57.0
41230;BME280;26964;50.428;19.218;2023-05-29T01:41:06;1020.9;;;8.7;57.0
41230;BME280;26964;50.428;19.218;2023-05-29T01:42:06;1020.8;;;8.7;57.0
41230;BME280;26964;50.428;19.218;2023-05-29T01:43:06;1020.9;;;8.7;57.1
41230;BME280;26964;50.428;19.218;2023-05-29T01:44:07;1020.8;;;8.7;57.1
41230;BME280;26964;50.428;19.218;2023-05-29T01:45:06;1020.9;;;8.7;57.2
41230;BME280;26964;50.428;19.218;2023-05-29T01:46:06;1020.9;;;8.7;57.2
41230;BME280;26964;50.428;19.218;2023-05-29T01:47:06;1020.9;;;8.7;57.2
41230;BME280;26964;50.428;19.218;2023-05-29T01:48:06;1020.9;;;8.6;57.2
41230;BME280;26964;50.428;19.218;2023-05-29T01:49:06;1020.8;;;8.6;57.3
41230;BME280;26964;50.428;19.218;2023-05-29T01:50:06;1020.8;;;8.6;57.3
41230;BME280;26964;50.428;19.218;2023-05-29T01:51:09;1020.8;;;8.6;57.3
41230;BME280;26964;50.428;19.218;2023-05-29T01:52:06;1020.8;;;8.6;57.4
41230;BME280;26964;50.428;19.218;2023-05-29T01:53:06;1020.8;;;8.6;57.4
41230;BME280;26964;50.428;19.218;2023-05-29T01:54:06;1020.8;;;8.6;57.4
41230;BME280;26964;50.428;19.218;2023-05-29T01:55:06;1020.8;;;8.6;57.5
41230;BME280;26964;50.428;19.218;2023-05-29T01:56:06;1020.7;;;8.6;57.5
41230;BME280;26964;50.428;19.218;2023-05-29T01:57:06;1020.7;;;8.6;57.5
41230;BME280;26964;50.428;19.218;2023-05-29T01:58:07;1020.7;;;8.6;57.5
41230;BME280;26964;50.428;19.218;2023-05-29T01:59:06;1020.8;;;8.6;57.6
41230;BME280;26964;50.428;19.218;2023-05-29T02:00:07;1020.7;;;8.6;57.6
41230;BME280;26964;50.428;19.218;2023-05-29T02:01:06;1020.7;;;8.6;57.6
41230;BME280;26964;50.428;19.218;2023-05-29T02:02:06;1020.7;;;8.6;57.7
41230;BME280;26964;50.428;19.218;2023-05-29T02:03:07;1020.7;;;8.6;57.7
41230;BME280;26964;50.428;19.218;2023-05-29T02:04:06;1020.7;;;8.6;57.7
41230;BME280;26964;50.428;19.218;2023-05-29T02:05:07;1020.7;;;8.5;57.7
41230;BME280;26964;50.428;19.218;2023-05-29T02:06:05;1020.8;;;8.5;57.7
41230;BME280;26964;50.428;19.218;2023-05-29T02:07:06;1020.7;;;8.5;57.8
41230;BME280;26964;50.428;19.218;2023-05-29T02:08:06;1020.7;;;8.5;57.8
41230;BME280;26964;50.428;19.218;2023-05-29T02:09:06;1020.8;;;8.5;57.8
41230;BME280;26964;50.428;19.218;2023-05-29T02:10:06;1020.8;;;8.5;57.9
41230;BME280;26964;50.428;19.218;2023-05-29T02:11:06;1020.7;;;8.5;57.9
41230;BME280;26964;50.428;19.218;2023-05-29T02:12:09;1020.7;;;8.5;57.9
41230;BME280;26964;50.428;19.218;2023-05-29T02:13:06;1020.7;;;8.5;58.0
41230;BME280;26964;50.428;19.218;2023-05-29T02:14:06;1020.7;;;8.5;58.0
41230;BME280;26964;50.428;19.218;2023-05-29T02:15:07;1020.7;;;8.5;58.0
41230;BME280;26964;50.428;19.218;2023-05-29T02:16:05;1020.6;;;8.5;58.0
41230;BME280;26964;50.428;19.218;2023-05-29T02:17:06;1020.7;;;8.5;58.0
41230;BME280;26964;50.428;19.218;2023-05-29T02:18:07;1020.7;;;8.5;58.0
41230;BME280;26964;50.428;19.218;2023-05-29T02:19:06;1020.7;;;8.5;58.1
41230;BME280;26964;50.428;19.218;2023-05-29T02:20:06;1020.7;;;8.5;58.1
41230;BME280;26964;50.428;19.218;2023-05-29T02:21:06;1020.7;;;8.5;58.1
41230;BME280;26964;50.428;19.218;2023-05-29T02:22:06;1020.8;;;8.5;58.2
41230;BME280;26964;50.428;19.218;2023-05-29T02:23:05;1020.8;;;8.5;58.2
41230;BME280;26964;50.428;19.218;2023-05-29T02:24:05;1020.7;;;8.5;58.3
41230;BME280;26964;50.428;19.218;2023-05-29T02:25:06;1020.8;;;8.4;58.3
41230;BME280;26964;50.428;19.218;2023-05-29T02:26:06;1020.8;;;8.4;58.3
41230;BME280;26964;50.428;19.218;2023-05-29T02:27:06;1020.7;;;8.4;58.4
41230;BME280;26964;50.428;19.218;2023-05-29T02:28:05;1020.8;;;8.4;58.4
41230;BME280;26964;50.428;19.218;2023-05-29T02:29:05;1020.8;;;8.4;58.4
41230;BME280;26964;50.428;19.218;2023-05-29T02:30:07;1020.7;;;8.4;58.4
41230;BME280;26964;50.428;19.218;2023-05-29T02:31:06;1020.8;;;8.4;58.4
41230;BME280;26964;50.428;19.218;2023-05-29T02:32:05;1020.7;;;8.4;58.4
41230;BME280;26964;50.428;19.218;2023-05-29T02:33:09;1020.8;;;8.4;58.5
41230;BME280;26964;50.428;19.218;2023-05-29T02:34:06;1020.7;;;8.4;58.5
41230;BME280;26964;50.428;19.218;2023-05-29T02:35:06;1020.7;;;8.4;58.5
41230;BME280;26964;50.428;19.218;2023-05-29T02:36:06;1020.7;;;8.4;58.6
41230;BME280;26964;50.428;19.218;2023-05-29T02:37:06;1020.7;;;8.4;58.7
41230;BME280;26964;50.428;19.218;2023-05-29T02:38:06;1020.7;;;8.4;58.7
41230;BME280;26964;50.428;19.218;2023-05-29T02:39:06;1020.7;;;8.4;58.7
41230;BME280;26964;50.428;19.218;2023-05-29T02:40:06;1020.7;;;8.4;58.7
41230;BME280;26964;50.428;19.218;2023-05-29T02:41:06;1020.6;;;8.4;58.7
41230;BME280;26964;50.428;19.218;2023-05-29T02:42:06;1020.6;;;8.4;58.7
41230;BME280;26964;50.428;19.218;2023-05-29T02:43:08;1020.7;;;8.3;58.7
41230;BME280;26964;50.428;19.218;2023-05-29T02:44:06;1020.6;;;8.3;58.8
41230;BME280;26964;50.428;19.218;2023-05-29T02:45:06;1020.6;;;8.3;58.8
41230;BME280;26964;50.428;19.218;2023-05-29T02:46:06;1020.6;;;8.3;58.8
41230;BME280;26964;50.428;19.218;2023-05-29T02:47:05;1020.6;;;8.3;58.8
41230;BME280;26964;50.428;19.218;2023-05-29T02:48:05;1020.7;;;8.3;58.9
41230;BME280;26964;50.428;19.218;2023-05-29T02:49:05;1020.6;;;8.3;58.9
41230;BME280;26964;50.428;19.218;2023-05-29T02:50:06;1020.6;;;8.3;58.9
41230;BME280;26964;50.428;19.218;2023-05-29T02:51:06;1020.6;;;8.3;58.9
41230;BME280;26964;50.428;19.218;2023-05-29T02:52:05;1020.6;;;8.3;59.0
41230;BME280;26964;50.428;19.218;2023-05-29T02:53:05;1020.6;;;8.3;59.0
41230;BME280;26964;50.428;19.218;2023-05-29T02:54:09;1020.6;;;8.3;59.0
41230;BME280;26964;50.428;19.218;2023-05-29T02:55:06;1020.6;;;8.3;59.0
41230;BME280;26964;50.428;19.218;2023-05-29T02:56:06;1020.6;;;8.3;59.0
41230;BME280;26964;50.428;19.218;2023-05-29T02:57:06;1020.6;;;8.3;59.1
41230;BME280;26964;50.428;19.218;2023-05-29T02:58:06;1020.6;;;8.3;59.1
41230;BME280;26964;50.428;19.218;2023-05-29T02:59:06;1020.6;;;8.3;59.2
41230;BME280;26964;50.428;19.218;2023-05-29T03:00:07;1020.6;;;8.2;59.2
41230;BME280;26964;50.428;19.218;2023-05-29T03:01:06;1020.6;;;8.3;59.2
41230;BME280;26964;50.428;19.218;2023-05-29T03:02:06;1020.5;;;8.3;59.3
41230;BME280;26964;50.428;19.218;2023-05-29T03:03:05;1020.5;;;8.2;59.3
41230;BME280;26964;50.428;19.218;2023-05-29T03:04:06;1020.6;;;8.3;59.3
41230;BME280;26964;50.428;19.218;2023-05-29T03:05:06;1020.5;;;8.3;59.4
41230;BME280;26964;50.428;19.218;2023-05-29T03:06:06;1020.5;;;8.3;59.4
41230;BME280;26964;50.428;19.218;2023-05-29T03:07:06;1020.6;;;8.3;59.4
41230;BME280;26964;50.428;19.218;2023-05-29T03:08:05;1020.6;;;8.3;59.4
41230;BME280;26964;50.428;19.218;2023-05-29T03:09:06;1020.6;;;8.3;59.5
41230;BME280;26964;50.428;19.218;2023-05-29T03:10:06;1020.5;;;8.3;59.5
41230;BME280;26964;50.428;19.218;2023-05-29T03:11:06;1020.6;;;8.3;59.5
41230;BME280;26964;50.428;19.218;2023-05-29T03:12:06;1020.6;;;8.3;59.5
41230;BME280;26964;50.428;19.218;2023-05-29T03:13:06;1020.5;;;8.3;59.6
41230;BME280;26964;50.428;19.218;2023-05-29T03:14:06;1020.5;;;8.3;59.6
41230;BME280;26964;50.428;19.218;2023-05-29T03:15:09;1020.5;;;8.3;59.6
41230;BME280;26964;50.428;19.218;2023-05-29T03:16:06;1020.5;;;8.3;59.6
41230;BME280;26964;50.428;19.218;2023-05-29T03:17:06;1020.5;;;8.3;59.7
41230;BME280;26964;50.428;19.218;2023-05-29T03:18:06;1020.5;;;8.3;59.7
41230;BME280;26964;50.428;19.218;2023-05-29T03:19:06;1020.5;;;8.3;59.7
41230;BME280;26964;50.428;19.218;2023-05-29T03:20:06;1020.6;;;8.3;59.7
41230;BME280;26964;50.428;19.218;2023-05-29T03:21:06;1020.5;;;8.3;59.8
41230;BME280;26964;50.428;19.218;2023-05-29T03:22:05;1020.6;;;8.3;59.8
41230;BME280;26964;50.428;19.218;2023-05-29T03:23:06;1020.5;;;8.3;59.8
41230;BME280;26964;50.428;19.218;2023-05-29T03:24:06;1020.4;;;8.3;59.8
41230;BME280;26964;50.428;19.218;2023-05-29T03:25:06;1020.5;;;8.3;59.9
41230;BME280;26964;50.428;19.218;2023-05-29T03:26:06;1020.5;;;8.3;59.9
41230;BME280;26964;50.428;19.218;2023-05-29T03:27:06;1020.5;;;8.3;60.0
41230;BME280;26964;50.428;19.218;2023-05-29T03:28:05;1020.5;;;8.3;60.0
41230;BME280;26964;50.428;19.218;2023-05-29T03:29:05;1020.5;;;8.4;60.0
41230;BME280;26964;50.428;19.218;2023-05-29T03:30:07;1020.5;;;8.4;60.1
41230;BME280;26964;50.428;19.218;2023-05-29T03:31:06;1020.5;;;8.4;60.2
41230;BME280;26964;50.428;19.218;2023-05-29T03:32:06;1020.5;;;8.4;60.2
41230;BME280;26964;50.428;19.218;2023-05-29T03:33:05;1020.5;;;8.4;60.3
41230;BME280;26964;50.428;19.218;2023-05-29T03:34:06;1020.5;;;8.4;60.4
41230;BME280;26964;50.428;19.218;2023-05-29T03:35:06;1020.5;;;8.5;60.5
41230;BME280;26964;50.428;19.218;2023-05-29T03:36:07;1020.5;;;8.6;60.6
41230;BME280;26964;50.428;19.218;2023-05-29T03:37:09;1020.5;;;8.6;60.7
41230;BME280;26964;50.428;19.218;2023-05-29T03:38:07;1020.5;;;8.7;60.7
41230;BME280;26964;50.428;19.218;2023-05-29T03:39:05;1020.5;;;8.8;60.7
41230;BME280;26964;50.428;19.218;2023-05-29T03:40:06;1020.5;;;8.8;60.6
41230;BME280;26964;50.428;19.218;2023-05-29T03:41:06;1020.5;;;8.9;60.7
41230;BME280;26964;50.428;19.218;2023-05-29T03:42:06;1020.4;;;9.0;60.7
41230;BME280;26964;50.428;19.218;2023-05-29T03:43:06;1020.5;;;9.0;60.7
41230;BME280;26964;50.428;19.218;2023-05-29T03:44:05;1020.4;;;9.1;60.7
41230;BME280;26964;50.428;19.218;2023-05-29T03:45:06;1020.5;;;9.2;60.7
41230;BME280;26964;50.428;19.218;2023-05-29T03:46:06;1020.5;;;9.2;60.7
41230;BME280;26964;50.428;19.218;2023-05-29T03:47:05;1020.5;;;9.3;60.7
41230;BME280;26964;50.428;19.218;2023-05-29T03:48:05;1020.5;;;9.4;60.6
41230;BME280;26964;50.428;19.218;2023-05-29T03:49:06;1020.5;;;9.4;60.6
41230;BME280;26964;50.428;19.218;2023-05-29T03:50:06;1020.5;;;9.5;60.6
41230;BME280;26964;50.428;19.218;2023-05-29T03:51:06;1020.5;;;9.5;60.5
41230;BME280;26964;50.428;19.218;2023-05-29T03:52:05;1020.5;;;9.6;60.6
41230;BME280;26964;50.428;19.218;2023-05-29T03:53:06;1020.5;;;9.6;60.5
41230;BME280;26964;50.428;19.218;2023-05-29T03:54:06;1020.6;;;9.7;60.5
41230;BME280;26964;50.428;19.218;2023-05-29T03:55:08;1020.5;;;9.7;60.5
41230;BME280;26964;50.428;19.218;2023-05-29T03:56:06;1020.5;;;9.8;60.5
41230;BME280;26964;50.428;19.218;2023-05-29T03:57:06;1020.5;;;9.8;60.5
41230;BME280;26964;50.428;19.218;2023-05-29T03:58:09;1020.5;;;9.8;60.5
41230;BME280;26964;50.428;19.218;2023-05-29T03:59:06;1020.5;;;9.9;60.5
41230;BME280;26964;50.428;19.218;2023-05-29T04:00:07;1020.6;;;9.9;60.5
41230;BME280;26964;50.428;19.218;2023-05-29T04:01:06;1020.6;;;10.0;60.5
41230;BME280;26964;50.428;19.218;2023-05-29T04:02:05;1020.6;;;10.0;60.5
41230;BME280;26964;50.428;19.218;2023-05-29T04:03:06;1020.6;;;10.0;60.5
41230;BME280;26964;50.428;19.218;2023-05-29T04:04:06;1020.5;;;10.1;60.5
41230;BME280;26964;50.428;19.218;2023-05-29T04:05:06;1020.6;;;10.1;60.5
41230;BME280;26964;50.428;19.218;2023-05-29T04:06:06;1020.6;;;10.1;60.5
41230;BME280;26964;50.428;19.218;2023-05-29T04:07:05;1020.6;;;10.1;60.5
41230;BME280;26964;50.428;19.218;2023-05-29T04:08:05;1020.6;;;10.1;60.5
41230;BME280;26964;50.428;19.218;2023-05-29T04:09:06;1020.6;;;10.1;60.5
41230;BME280;26964;50.428;19.218;2023-05-29T04:10:06;1020.6;;;10.1;60.5
41230;BME280;26964;50.428;19.218;2023-05-29T04:11:06;1020.6;;;10.2;60.5
41230;BME280;26964;50.428;19.218;2023-05-29T04:12:06;1020.6;;;10.2;60.5
41230;BME280;26964;50.428;19.218;2023-05-29T04:13:06;1020.6;;;10.2;60.5
41230;BME280;26964;50.428;19.218;2023-05-29T04:14:06;1020.6;;;10.2;60.5
41230;BME280;26964;50.428;19.218;2023-05-29T04:15:06;1020.6;;;10.2;60.5
41230;BME280;26964;50.428;19.218;2023-05-29T04:16:06;1020.6;;;10.2;60.5
41230;BME280;26964;50.428;19.218;2023-05-29T04:17:06;1020.7;;;10.2;60.5
41230;BME280;26964;50.428;19.218;2023-05-29T04:18:06;1020.6;;;10.2;60.5
41230;BME280;26964;50.428;19.218;2023-05-29T04:19:09;1020.6;;;10.2;60.5
41230;BME280;26964;50.428;19.218;2023-05-29T04:20:06;1020.7;;;10.2;60.6
41230;BME280;26964;50.428;19.218;2023-05-29T04:21:05;1020.7;;;10.2;60.6
41230;BME280;26964;50.428;19.218;2023-05-29T04:22:05;1020.7;;;10.2;60.6
41230;BME280;26964;50.428;19.218;2023-05-29T04:23:06;1020.7;;;10.2;60.6
41230;BME280;26964;50.428;19.218;2023-05-29T04:24:06;1020.6;;;10.3;60.7
41230;BME280;26964;50.428;19.218;2023-05-29T04:25:06;1020.6;;;10.2;60.7
41230;BME280;26964;50.428;19.218;2023-05-29T04:26:05;1020.6;;;10.3;60.7
41230;BME280;26964;50.428;19.218;2023-05-29T04:27:05;1020.7;;;10.3;60.7
41230;BME280;26964;50.428;19.218;2023-05-29T04:28:06;1020.6;;;10.3;60.7
41230;BME280;26964;50.428;19.218;2023-05-29T04:29:06;1020.7;;;10.3;60.8
41230;BME280;26964;50.428;19.218;2023-05-29T04:30:07;1020.7;;;10.3;60.8
41230;BME280;26964;50.428;19.218;2023-05-29T04:31:05;1020.6;;;10.3;60.8
41230;BME280;26964;50.428;19.218;2023-05-29T04:32:06;1020.7;;;10.3;60.9
41230;BME280;26964;50.428;19.218;2023-05-29T04:33:06;1020.6;;;10.4;60.9
41230;BME280;26964;50.428;19.218;2023-05-29T04:34:06;1020.7;;;10.4;60.9
41230;BME280;26964;50.428;19.218;2023-05-29T04:35:06;1020.7;;;10.4;60.9
41230;BME280;26964;50.428;19.218;2023-05-29T04:36:06;1020.7;;;10.4;60.9
41230;BME280;26964;50.428;19.218;2023-05-29T04:37:06;1020.7;;;10.4;61.0
41230;BME280;26964;50.428;19.218;2023-05-29T04:38:06;1020.7;;;10.5;61.0
41230;BME280;26964;50.428;19.218;2023-05-29T04:39:07;1020.8;;;10.5;61.0
41230;BME280;26964;50.428;19.218;2023-05-29T04:40:09;1020.8;;;10.5;61.0
41230;BME280;26964;50.428;19.218;2023-05-29T04:41:06;1020.8;;;10.6;61.1
41230;BME280;26964;50.428;19.218;2023-05-29T04:42:05;1020.8;;;10.6;61.1
41230;BME280;26964;50.428;19.218;2023-05-29T04:43:05;1020.8;;;10.6;61.1
41230;BME280;26964;50.428;19.218;2023-05-29T04:44:06;1020.8;;;10.6;61.0
41230;BME280;26964;50.428;19.218;2023-05-29T04:45:06;1020.7;;;10.7;61.1
41230;BME280;26964;50.428;19.218;2023-05-29T04:46:05;1020.8;;;10.7;61.1
41230;BME280;26964;50.428;19.218;2023-05-29T04:47:05;1020.8;;;10.7;61.1
41230;BME280;26964;50.428;19.218;2023-05-29T04:48:06;1020.8;;;10.8;61.1
41230;BME280;26964;50.428;19.218;2023-05-29T04:49:06;1020.8;;;10.8;61.2
41230;BME280;26964;50.428;19.218;2023-05-29T04:50:06;1020.8;;;10.8;61.2
41230;BME280;26964;50.428;19.218;2023-05-29T04:51:05;1020.7;;;10.8;61.2
41230;BME280;26964;50.428;19.218;2023-05-29T04:52:06;1020.8;;;10.9;61.2
41230;BME280;26964;50.428;19.218;2023-05-29T04:53:05;1020.9;;;10.9;61.2
41230;BME280;26964;50.428;19.218;2023-05-29T04:54:05;1020.8;;;10.9;61.2
41230;BME280;26964;50.428;19.218;2023-05-29T04:55:06;1020.8;;;11.0;61.2
41230;BME280;26964;50.428;19.218;2023-05-29T04:56:05;1020.8;;;11.0;61.2
41230;BME280;26964;50.428;19.218;2023-05-29T04:57:05;1020.9;;;11.1;61.3
41230;BME280;26964;50.428;19.218;2023-05-29T04:58:06;1020.9;;;11.1;61.3
41230;BME280;26964;50.428;19.218;2023-05-29T04:59:06;1021.0;;;11.1;61.3
41230;BME280;26964;50.428;19.218;2023-05-29T05:00:06;1020.9;;;11.1;61.3
41230;BME280;26964;50.428;19.218;2023-05-29T05:01:08;1021.0;;;11.2;61.3
41230;BME280;26964;50.428;19.218;2023-05-29T05:02:05;1020.9;;;11.2;61.3
41230;BME280;26964;50.428;19.218;2023-05-29T05:03:06;1021.0;;;11.3;61.3
41230;BME280;26964;50.428;19.218;2023-05-29T05:04:06;1020.9;;;11.3;61.3
41230;BME280;26964;50.428;19.218;2023-05-29T05:05:06;1021.1;;;11.3;61.3
41230;BME280;26964;50.428;19.218;2023-05-29T05:06:05;1021.0;;;11.4;61.3
41230;BME280;26964;50.428;19.218;2023-05-29T05:07:05;1021.0;;;11.4;61.3
41230;BME280;26964;50.428;19.218;2023-05-29T05:08:06;1021.1;;;11.4;61.3
41230;BME280;26964;50.428;19.218;2023-05-29T05:09:05;1021.1;;;11.5;61.3
41230;BME280;26964;50.428;19.218;2023-05-29T05:10:07;1020.9;;;11.5;61.3
41230;BME280;26964;50.428;19.218;2023-05-29T05:11:06;1021.1;;;11.6;61.3
41230;BME280;26964;50.428;19.218;2023-05-29T05:12:06;1021.0;;;11.6;61.3
41230;BME280;26964;50.428;19.218;2023-05-29T05:13:06;1021.1;;;11.6;61.3
41230;BME280;26964;50.428;19.218;2023-05-29T05:14:06;1021.0;;;11.7;61.3
41230;BME280;26964;50.428;19.218;2023-05-29T05:15:06;1021.1;;;11.7;61.3
41230;BME280;26964;50.428;19.218;2023-05-29T05:16:05;1021.0;;;11.8;61.3
41230;BME280;26964;50.428;19.218;2023-05-29T05:17:06;1021.1;;;11.8;61.2
41230;BME280;26964;50.428;19.218;2023-05-29T05:18:06;1021.1;;;11.8;61.0
41230;BME280;26964;50.428;19.218;2023-05-29T05:19:06;1021.1;;;11.9;61.1
41230;BME280;26964;50.428;19.218;2023-05-29T05:20:06;1021.0;;;11.9;61.2
41230;BME280;26964;50.428;19.218;2023-05-29T05:21:06;1021.0;;;12.0;61.2
41230;BME280;26964;50.428;19.218;2023-05-29T05:22:07;1021.0;;;12.0;61.2
41230;BME280;26964;50.428;19.218;2023-05-29T05:23:05;1021.0;;;12.1;61.2
41230;BME280;26964;50.428;19.218;2023-05-29T05:24:05;1020.9;;;12.1;61.2
41230;BME280;26964;50.428;19.218;2023-05-29T05:25:06;1020.9;;;12.1;61.1
41230;BME280;26964;50.428;19.218;2023-05-29T05:26:06;1021.0;;;12.2;61.1
41230;BME280;26964;50.428;19.218;2023-05-29T05:27:06;1020.9;;;12.2;61.1
41230;BME280;26964;50.428;19.218;2023-05-29T05:28:07;1021.0;;;12.3;61.1
41230;BME280;26964;50.428;19.218;2023-05-29T05:29:06;1020.9;;;12.3;61.1
41230;BME280;26964;50.428;19.218;2023-05-29T05:30:06;1021.0;;;12.4;61.1
41230;BME280;26964;50.428;19.218;2023-05-29T05:31:06;1021.0;;;12.4;61.0
41230;BME280;26964;50.428;19.218;2023-05-29T05:32:05;1020.9;;;12.4;61.0
41230;BME280;26964;50.428;19.218;2023-05-29T05:33:06;1020.9;;;12.5;61.0
41230;BME280;26964;50.428;19.218;2023-05-29T05:34:05;1021.0;;;12.5;61.0
41230;BME280;26964;50.428;19.218;2023-05-29T05:35:05;1021.0;;;12.6;61.0
41230;BME280;26964;50.428;19.218;2023-05-29T05:36:05;1021.0;;;12.6;61.0
41230;BME280;26964;50.428;19.218;2023-05-29T05:37:06;1021.0;;;12.6;60.9